sensor_id;sensor_type;location;lat;lon;timestamp;P1;durP1;ratioP1;P2;durP2;ratioP2
36257;SDS011;22294;52.044;4.582;2022-10-30T00:01:54;17.20;;;7.22;;
36257;SDS011;22294;52.044;4.582;2022-10-30T00:04:19;15.57;;;7.10;;
36257;SDS011;22294;52.044;4.582;2022-10-30T00:06:44;19.55;;;8.27;;
36257;SDS011;22294;52.044;4.582;2022-10-30T00:09:09;23.83;;;8.20;;
36257;SDS011;22294;52.044;4.582;2022-10-30T00:11:35;16.63;;;7.65;;
36257;SDS011;22294;52.044;4.582;2022-10-30T00:14:00;20.20;;;7.90;;
36257;SDS011;22294;52.044;4.582;2022-10-30T00:16:25;18.08;;;8.32;;
36257;SDS011;22294;52.044;4.582;2022-10-30T00:18:51;19.05;;;8.32;;
36257;SDS011;22294;52.044;4.582;2022-10-30T00:21:16;18.42;;;7.65;;
36257;SDS011;22294;52.044;4.582;2022-10-30T00:23:47;16.02;;;8.32;;
36257;SDS011;22294;52.044;4.582;2022-10-30T00:26:14;16.48;;;7.90;;
36257;SDS011;22294;52.044;4.582;2022-10-30T00:28:40;17.75;;;8.70;;
36257;SDS011;22294;52.044;4.582;2022-10-30T00:31:06;24.25;;;8.65;;
36257;SDS011;22294;52.044;4.582;2022-10-30T00:33:31;21.95;;;9.02;;
36257;SDS011;22294;52.044;4.582;2022-10-30T00:35:57;17.10;;;7.85;;
36257;SDS011;22294;52.044;4.582;2022-10-30T00:38:22;24.10;;;8.65;;
36257;SDS011;22294;52.044;4.582;2022-10-30T00:40:48;14.40;;;8.10;;
36257;SDS011;22294;52.044;4.582;2022-10-30T00:48:42;13.85;;;8.48;;
36257;SDS011;22294;52.044;4.582;2022-10-30T00:51:13;17.00;;;8.32;;
36257;SDS011;22294;52.044;4.582;2022-10-30T00:53:39;15.52;;;8.77;;
36257;SDS011;22294;52.044;4.582;2022-10-30T00:56:05;20.98;;;9.00;;
36257;SDS011;22294;52.044;4.582;2022-10-30T00:58:35;19.73;;;8.07;;
36257;SDS011;22294;52.044;4.582;2022-10-30T01:01:06;16.80;;;9.00;;
36257;SDS011;22294;52.044;4.582;2022-10-30T01:03:35;21.40;;;8.95;;
36257;SDS011;22294;52.044;4.582;2022-10-30T01:06:03;20.00;;;8.60;;
36257;SDS011;22294;52.044;4.582;2022-10-30T01:08:32;17.25;;;8.77;;
36257;SDS011;22294;52.044;4.582;2022-10-30T01:10:58;15.43;;;8.68;;
36257;SDS011;22294;52.044;4.582;2022-10-30T01:13:26;18.33;;;9.65;;
36257;SDS011;22294;52.044;4.582;2022-10-30T01:15:58;19.63;;;8.88;;
36257;SDS011;22294;52.044;4.582;2022-10-30T01:21:30;19.02;;;9.63;;
36257;SDS011;22294;52.044;4.582;2022-10-30T01:35:22;18.45;;;9.65;;
36257;SDS011;22294;52.044;4.582;2022-10-30T01:37:57;14.70;;;8.43;;
36257;SDS011;22294;52.044;4.582;2022-10-30T01:40:28;18.17;;;8.50;;
36257;SDS011;22294;52.044;4.582;2022-10-30T01:42:55;17.85;;;9.40;;
36257;SDS011;22294;52.044;4.582;2022-10-30T01:50:50;23.25;;;9.70;;
36257;SDS011;22294;52.044;4.582;2022-10-30T01:59:18;18.70;;;9.63;;
36257;SDS011;22294;52.044;4.582;2022-10-30T02:01:49;15.13;;;9.13;;
36257;SDS011;22294;52.044;4.582;2022-10-30T02:04:14;17.90;;;9.98;;
36257;SDS011;22294;52.044;4.582;2022-10-30T02:06:40;17.80;;;9.95;;
36257;SDS011;22294;52.044;4.582;2022-10-30T02:09:06;21.63;;;9.90;;
36257;SDS011;22294;52.044;4.582;2022-10-30T02:11:31;15.02;;;8.98;;
36257;SDS011;22294;52.044;4.582;2022-10-30T02:13:59;22.33;;;10.30;;
36257;SDS011;22294;52.044;4.582;2022-10-30T02:16:27;20.38;;;9.52;;
36257;SDS011;22294;52.044;4.582;2022-10-30T02:18:52;15.02;;;9.38;;
36257;SDS011;22294;52.044;4.582;2022-10-30T02:21:17;18.80;;;10.35;;
36257;SDS011;22294;52.044;4.582;2022-10-30T02:23:43;19.90;;;10.07;;
36257;SDS011;22294;52.044;4.582;2022-10-30T02:26:08;17.38;;;9.82;;
36257;SDS011;22294;52.044;4.582;2022-10-30T02:28:33;19.08;;;10.15;;
36257;SDS011;22294;52.044;4.582;2022-10-30T02:30:59;16.98;;;9.73;;
36257;SDS011;22294;52.044;4.582;2022-10-30T02:33:24;22.13;;;9.65;;
36257;SDS011;22294;52.044;4.582;2022-10-30T02:35:51;19.83;;;10.32;;
36257;SDS011;22294;52.044;4.582;2022-10-30T02:38:17;20.52;;;9.82;;
36257;SDS011;22294;52.044;4.582;2022-10-30T02:40:42;17.30;;;9.43;;
36257;SDS011;22294;52.044;4.582;2022-10-30T02:43:07;23.17;;;9.73;;
36257;SDS011;22294;52.044;4.582;2022-10-30T02:45:33;18.88;;;10.32;;
36257;SDS011;22294;52.044;4.582;2022-10-30T02:47:58;24.65;;;9.90;;
36257;SDS011;22294;52.044;4.582;2022-10-30T02:50:24;20.98;;;10.90;;
36257;SDS011;22294;52.044;4.582;2022-10-30T02:52:50;18.73;;;9.40;;
36257;SDS011;22294;52.044;4.582;2022-10-30T02:55:15;18.88;;;9.98;;
36257;SDS011;22294;52.044;4.582;2022-10-30T02:57:40;18.90;;;10.38;;
36257;SDS011;22294;52.044;4.582;2022-10-30T03:00:06;19.08;;;9.98;;
36257;SDS011;22294;52.044;4.582;2022-10-30T03:02:32;15.98;;;9.43;;
36257;SDS011;22294;52.044;4.582;2022-10-30T03:04:57;20.48;;;10.60;;
36257;SDS011;22294;52.044;4.582;2022-10-30T03:07:23;21.77;;;10.25;;
36257;SDS011;22294;52.044;4.582;2022-10-30T03:09:48;18.20;;;10.40;;
36257;SDS011;22294;52.044;4.582;2022-10-30T03:12:13;22.00;;;9.55;;
36257;SDS011;22294;52.044;4.582;2022-10-30T03:14:38;25.80;;;10.82;;
36257;SDS011;22294;52.044;4.582;2022-10-30T03:17:04;20.52;;;10.02;;
36257;SDS011;22294;52.044;4.582;2022-10-30T03:19:29;19.08;;;9.75;;
36257;SDS011;22294;52.044;4.582;2022-10-30T03:21:54;16.15;;;9.68;;
36257;SDS011;22294;52.044;4.582;2022-10-30T03:24:20;21.05;;;10.07;;
36257;SDS011;22294;52.044;4.582;2022-10-30T03:26:45;18.52;;;10.23;;
36257;SDS011;22294;52.044;4.582;2022-10-30T03:29:11;19.38;;;10.68;;
36257;SDS011;22294;52.044;4.582;2022-10-30T03:31:36;18.38;;;9.75;;
36257;SDS011;22294;52.044;4.582;2022-10-30T03:34:01;23.30;;;10.50;;
36257;SDS011;22294;52.044;4.582;2022-10-30T03:36:27;22.55;;;10.02;;
36257;SDS011;22294;52.044;4.582;2022-10-30T03:38:52;20.02;;;10.57;;
36257;SDS011;22294;52.044;4.582;2022-10-30T03:41:17;23.05;;;10.75;;
36257;SDS011;22294;52.044;4.582;2022-10-30T03:43:42;17.13;;;9.88;;
36257;SDS011;22294;52.044;4.582;2022-10-30T03:46:08;20.73;;;10.55;;
36257;SDS011;22294;52.044;4.582;2022-10-30T03:48:34;21.23;;;10.52;;
36257;SDS011;22294;52.044;4.582;2022-10-30T03:50:59;21.63;;;10.00;;
36257;SDS011;22294;52.044;4.582;2022-10-30T03:53:25;19.60;;;9.90;;
36257;SDS011;22294;52.044;4.582;2022-10-30T03:55:52;19.83;;;10.48;;
36257;SDS011;22294;52.044;4.582;2022-10-30T03:58:23;20.65;;;11.52;;
36257;SDS011;22294;52.044;4.582;2022-10-30T04:00:48;20.80;;;10.25;;
36257;SDS011;22294;52.044;4.582;2022-10-30T04:03:13;16.67;;;9.73;;
36257;SDS011;22294;52.044;4.582;2022-10-30T04:05:39;22.88;;;10.43;;
36257;SDS011;22294;52.044;4.582;2022-10-30T04:08:05;21.92;;;10.35;;
36257;SDS011;22294;52.044;4.582;2022-10-30T04:13:00;21.05;;;10.48;;
36257;SDS011;22294;52.044;4.582;2022-10-30T04:15:30;20.30;;;9.77;;
36257;SDS011;22294;52.044;4.582;2022-10-30T04:17:55;19.40;;;10.63;;
36257;SDS011;22294;52.044;4.582;2022-10-30T04:20:22;19.63;;;10.48;;
36257;SDS011;22294;52.044;4.582;2022-10-30T04:22:53;22.67;;;11.25;;
36257;SDS011;22294;52.044;4.582;2022-10-30T04:25:21;29.42;;;11.00;;
36257;SDS011;22294;52.044;4.582;2022-10-30T04:27:48;20.10;;;9.68;;
36257;SDS011;22294;52.044;4.582;2022-10-30T04:30:13;22.60;;;10.38;;
36257;SDS011;22294;52.044;4.582;2022-10-30T04:32:46;20.63;;;10.85;;
36257;SDS011;22294;52.044;4.582;2022-10-30T04:35:22;18.92;;;10.68;;
36257;SDS011;22294;52.044;4.582;2022-10-30T04:37:55;24.08;;;10.77;;
36257;SDS011;22294;52.044;4.582;2022-10-30T04:40:32;18.05;;;10.23;;
36257;SDS011;22294;52.044;4.582;2022-10-30T04:43:00;18.00;;;10.38;;
36257;SDS011;22294;52.044;4.582;2022-10-30T04:45:27;21.63;;;10.43;;
36257;SDS011;22294;52.044;4.582;2022-10-30T04:47:54;22.20;;;10.38;;
36257;SDS011;22294;52.044;4.582;2022-10-30T04:50:24;19.88;;;10.60;;
36257;SDS011;22294;52.044;4.582;2022-10-30T04:52:57;24.25;;;11.63;;
36257;SDS011;22294;52.044;4.582;2022-10-30T04:55:23;19.67;;;10.00;;
36257;SDS011;22294;52.044;4.582;2022-10-30T04:57:48;18.02;;;10.82;;
36257;SDS011;22294;52.044;4.582;2022-10-30T05:00:14;21.73;;;10.80;;
36257;SDS011;22294;52.044;4.582;2022-10-30T05:02:39;19.45;;;10.85;;
36257;SDS011;22294;52.044;4.582;2022-10-30T05:05:04;24.13;;;10.65;;
36257;SDS011;22294;52.044;4.582;2022-10-30T05:07:30;22.38;;;10.32;;
36257;SDS011;22294;52.044;4.582;2022-10-30T05:09:55;23.95;;;11.40;;
36257;SDS011;22294;52.044;4.582;2022-10-30T05:12:20;24.13;;;10.80;;
36257;SDS011;22294;52.044;4.582;2022-10-30T05:14:46;18.13;;;10.65;;
36257;SDS011;22294;52.044;4.582;2022-10-30T05:17:11;20.40;;;10.90;;
36257;SDS011;22294;52.044;4.582;2022-10-30T05:19:36;24.58;;;11.82;;
36257;SDS011;22294;52.044;4.582;2022-10-30T05:22:02;26.50;;;11.35;;
36257;SDS011;22294;52.044;4.582;2022-10-30T05:24:27;18.35;;;10.85;;
36257;SDS011;22294;52.044;4.582;2022-10-30T05:26:52;23.70;;;12.18;;
36257;SDS011;22294;52.044;4.582;2022-10-30T05:29:17;24.52;;;11.63;;
36257;SDS011;22294;52.044;4.582;2022-10-30T05:31:43;26.83;;;11.73;;
36257;SDS011;22294;52.044;4.582;2022-10-30T05:34:08;23.48;;;10.65;;
36257;SDS011;22294;52.044;4.582;2022-10-30T05:36:33;23.77;;;10.98;;
36257;SDS011;22294;52.044;4.582;2022-10-30T05:38:59;21.98;;;11.88;;
36257;SDS011;22294;52.044;4.582;2022-10-30T05:41:24;20.95;;;11.02;;
36257;SDS011;22294;52.044;4.582;2022-10-30T05:43:49;20.35;;;10.63;;
36257;SDS011;22294;52.044;4.582;2022-10-30T05:46:14;21.70;;;10.65;;
36257;SDS011;22294;52.044;4.582;2022-10-30T05:48:40;19.77;;;10.85;;
36257;SDS011;22294;52.044;4.582;2022-10-30T05:51:05;18.05;;;10.68;;
36257;SDS011;22294;52.044;4.582;2022-10-30T05:53:32;23.95;;;10.95;;
36257;SDS011;22294;52.044;4.582;2022-10-30T05:55:58;21.92;;;11.65;;
36257;SDS011;22294;52.044;4.582;2022-10-30T05:58:24;17.77;;;10.73;;
36257;SDS011;22294;52.044;4.582;2022-10-30T06:00:49;23.48;;;11.55;;
36257;SDS011;22294;52.044;4.582;2022-10-30T06:03:15;22.40;;;11.70;;
36257;SDS011;22294;52.044;4.582;2022-10-30T06:05:42;17.90;;;10.82;;
36257;SDS011;22294;52.044;4.582;2022-10-30T06:08:09;17.23;;;10.48;;
36257;SDS011;22294;52.044;4.582;2022-10-30T06:10:34;17.17;;;11.13;;
36257;SDS011;22294;52.044;4.582;2022-10-30T06:13:01;21.77;;;10.85;;
36257;SDS011;22294;52.044;4.582;2022-10-30T06:15:29;21.25;;;11.18;;
36257;SDS011;22294;52.044;4.582;2022-10-30T06:17:55;19.80;;;11.50;;
36257;SDS011;22294;52.044;4.582;2022-10-30T06:20:21;23.55;;;11.05;;
36257;SDS011;22294;52.044;4.582;2022-10-30T06:22:58;18.13;;;11.45;;
36257;SDS011;22294;52.044;4.582;2022-10-30T06:25:25;18.65;;;11.13;;
36257;SDS011;22294;52.044;4.582;2022-10-30T06:27:51;20.27;;;11.52;;
36257;SDS011;22294;52.044;4.582;2022-10-30T06:30:17;25.30;;;11.13;;
36257;SDS011;22294;52.044;4.582;2022-10-30T06:32:43;19.92;;;10.15;;
36257;SDS011;22294;52.044;4.582;2022-10-30T06:35:08;18.13;;;10.13;;
36257;SDS011;22294;52.044;4.582;2022-10-30T06:37:34;21.67;;;11.82;;
36257;SDS011;22294;52.044;4.582;2022-10-30T06:40:00;23.90;;;11.38;;
36257;SDS011;22294;52.044;4.582;2022-10-30T06:42:25;24.67;;;12.05;;
36257;SDS011;22294;52.044;4.582;2022-10-30T06:44:51;21.77;;;11.55;;
36257;SDS011;22294;52.044;4.582;2022-10-30T06:47:16;30.27;;;11.15;;
36257;SDS011;22294;52.044;4.582;2022-10-30T06:49:41;26.15;;;11.93;;
36257;SDS011;22294;52.044;4.582;2022-10-30T06:52:07;23.42;;;11.77;;
36257;SDS011;22294;52.044;4.582;2022-10-30T06:54:32;20.63;;;11.23;;
36257;SDS011;22294;52.044;4.582;2022-10-30T06:56:57;25.27;;;12.30;;
36257;SDS011;22294;52.044;4.582;2022-10-30T06:59:23;21.70;;;11.20;;
36257;SDS011;22294;52.044;4.582;2022-10-30T07:01:48;27.35;;;11.35;;
36257;SDS011;22294;52.044;4.582;2022-10-30T07:04:13;22.25;;;11.32;;
36257;SDS011;22294;52.044;4.582;2022-10-30T07:06:39;26.25;;;12.15;;
36257;SDS011;22294;52.044;4.582;2022-10-30T07:09:04;20.05;;;11.02;;
36257;SDS011;22294;52.044;4.582;2022-10-30T07:11:29;23.85;;;12.43;;
36257;SDS011;22294;52.044;4.582;2022-10-30T07:13:55;23.70;;;12.27;;
36257;SDS011;22294;52.044;4.582;2022-10-30T07:16:21;26.58;;;12.82;;
36257;SDS011;22294;52.044;4.582;2022-10-30T07:18:46;26.17;;;11.77;;
36257;SDS011;22294;52.044;4.582;2022-10-30T07:21:12;21.42;;;11.93;;
36257;SDS011;22294;52.044;4.582;2022-10-30T07:23:37;23.10;;;12.07;;
36257;SDS011;22294;52.044;4.582;2022-10-30T07:26:02;23.40;;;12.38;;
36257;SDS011;22294;52.044;4.582;2022-10-30T07:28:28;22.00;;;11.85;;
36257;SDS011;22294;52.044;4.582;2022-10-30T07:30:56;21.58;;;12.10;;
36257;SDS011;22294;52.044;4.582;2022-10-30T07:33:22;19.30;;;12.13;;
36257;SDS011;22294;52.044;4.582;2022-10-30T07:35:47;21.45;;;11.70;;
36257;SDS011;22294;52.044;4.582;2022-10-30T07:38:12;25.35;;;12.48;;
36257;SDS011;22294;52.044;4.582;2022-10-30T07:40:38;24.33;;;12.75;;
36257;SDS011;22294;52.044;4.582;2022-10-30T07:43:03;20.70;;;11.82;;
36257;SDS011;22294;52.044;4.582;2022-10-30T07:45:29;17.63;;;11.60;;
36257;SDS011;22294;52.044;4.582;2022-10-30T07:47:55;26.30;;;12.75;;
36257;SDS011;22294;52.044;4.582;2022-10-30T07:50:22;22.17;;;12.30;;
36257;SDS011;22294;52.044;4.582;2022-10-30T07:52:48;21.92;;;12.38;;
36257;SDS011;22294;52.044;4.582;2022-10-30T07:55:14;20.85;;;11.80;;
36257;SDS011;22294;52.044;4.582;2022-10-30T07:57:39;16.80;;;11.48;;
36257;SDS011;22294;52.044;4.582;2022-10-30T08:00:10;24.52;;;11.52;;
36257;SDS011;22294;52.044;4.582;2022-10-30T08:02:37;18.45;;;12.10;;
36257;SDS011;22294;52.044;4.582;2022-10-30T08:05:03;22.83;;;12.02;;
36257;SDS011;22294;52.044;4.582;2022-10-30T08:07:30;22.15;;;11.82;;
36257;SDS011;22294;52.044;4.582;2022-10-30T08:09:56;24.45;;;13.20;;
36257;SDS011;22294;52.044;4.582;2022-10-30T08:12:22;20.92;;;11.93;;
36257;SDS011;22294;52.044;4.582;2022-10-30T08:14:47;23.30;;;12.75;;
36257;SDS011;22294;52.044;4.582;2022-10-30T08:17:13;27.75;;;13.25;;
36257;SDS011;22294;52.044;4.582;2022-10-30T08:19:38;28.20;;;12.80;;
36257;SDS011;22294;52.044;4.582;2022-10-30T08:22:04;21.20;;;11.75;;
36257;SDS011;22294;52.044;4.582;2022-10-30T08:24:29;22.83;;;13.50;;
36257;SDS011;22294;52.044;4.582;2022-10-30T08:26:54;23.92;;;13.05;;
36257;SDS011;22294;52.044;4.582;2022-10-30T08:29:19;20.80;;;12.13;;
36257;SDS011;22294;52.044;4.582;2022-10-30T08:31:48;27.45;;;14.15;;
36257;SDS011;22294;52.044;4.582;2022-10-30T08:34:13;28.73;;;13.13;;
36257;SDS011;22294;52.044;4.582;2022-10-30T08:36:39;26.48;;;13.40;;
36257;SDS011;22294;52.044;4.582;2022-10-30T08:39:04;20.35;;;11.90;;
36257;SDS011;22294;52.044;4.582;2022-10-30T08:41:29;21.20;;;12.68;;
36257;SDS011;22294;52.044;4.582;2022-10-30T08:43:55;24.52;;;12.18;;
36257;SDS011;22294;52.044;4.582;2022-10-30T08:46:20;24.17;;;11.88;;
36257;SDS011;22294;52.044;4.582;2022-10-30T08:48:45;18.25;;;11.48;;
36257;SDS011;22294;52.044;4.582;2022-10-30T08:51:11;28.08;;;12.68;;
36257;SDS011;22294;52.044;4.582;2022-10-30T08:53:36;21.00;;;13.02;;
36257;SDS011;22294;52.044;4.582;2022-10-30T08:56:01;22.77;;;13.65;;
36257;SDS011;22294;52.044;4.582;2022-10-30T08:58:27;22.98;;;12.77;;
36257;SDS011;22294;52.044;4.582;2022-10-30T09:00:52;24.30;;;12.05;;
36257;SDS011;22294;52.044;4.582;2022-10-30T09:03:18;24.48;;;12.57;;
36257;SDS011;22294;52.044;4.582;2022-10-30T09:05:43;26.40;;;13.25;;
36257;SDS011;22294;52.044;4.582;2022-10-30T09:08:08;20.33;;;12.10;;
36257;SDS011;22294;52.044;4.582;2022-10-30T09:10:33;26.65;;;12.85;;
36257;SDS011;22294;52.044;4.582;2022-10-30T09:12:59;19.85;;;12.60;;
36257;SDS011;22294;52.044;4.582;2022-10-30T09:15:26;24.95;;;12.93;;
36257;SDS011;22294;52.044;4.582;2022-10-30T09:17:55;24.92;;;13.23;;
36257;SDS011;22294;52.044;4.582;2022-10-30T09:20:25;22.67;;;12.45;;
36257;SDS011;22294;52.044;4.582;2022-10-30T09:22:51;21.05;;;13.55;;
36257;SDS011;22294;52.044;4.582;2022-10-30T09:25:16;25.90;;;12.98;;
36257;SDS011;22294;52.044;4.582;2022-10-30T09:27:41;25.70;;;13.27;;
36257;SDS011;22294;52.044;4.582;2022-10-30T09:30:07;22.83;;;13.40;;
36257;SDS011;22294;52.044;4.582;2022-10-30T09:32:33;28.35;;;13.95;;
36257;SDS011;22294;52.044;4.582;2022-10-30T09:34:58;23.88;;;13.43;;
36257;SDS011;22294;52.044;4.582;2022-10-30T09:37:23;22.10;;;13.63;;
36257;SDS011;22294;52.044;4.582;2022-10-30T09:39:50;29.65;;;13.00;;
36257;SDS011;22294;52.044;4.582;2022-10-30T09:45:02;25.30;;;12.45;;
36257;SDS011;22294;52.044;4.582;2022-10-30T09:55:41;17.88;;;12.32;;
36257;SDS011;22294;52.044;4.582;2022-10-30T10:01:01;25.73;;;11.75;;
36257;SDS011;22294;52.044;4.582;2022-10-30T10:06:25;24.67;;;11.95;;
36257;SDS011;22294;52.044;4.582;2022-10-30T10:08:57;23.45;;;10.55;;
36257;SDS011;22294;52.044;4.582;2022-10-30T10:11:31;22.95;;;10.57;;
36257;SDS011;22294;52.044;4.582;2022-10-30T10:14:03;20.73;;;10.63;;
36257;SDS011;22294;52.044;4.582;2022-10-30T10:16:38;21.70;;;10.18;;
36257;SDS011;22294;52.044;4.582;2022-10-30T10:21:42;26.67;;;11.20;;
36257;SDS011;22294;52.044;4.582;2022-10-30T10:24:15;22.52;;;10.50;;
36257;SDS011;22294;52.044;4.582;2022-10-30T10:42:04;15.07;;;10.30;;
36257;SDS011;22294;52.044;4.582;2022-10-30T10:44:29;20.20;;;10.05;;
36257;SDS011;22294;52.044;4.582;2022-10-30T10:52:50;22.60;;;10.13;;
36257;SDS011;22294;52.044;4.582;2022-10-30T10:55:38;20.40;;;10.70;;
36257;SDS011;22294;52.044;4.582;2022-10-30T11:01:03;22.23;;;9.48;;
36257;SDS011;22294;52.044;4.582;2022-10-30T11:06:27;22.00;;;9.10;;
36257;SDS011;22294;52.044;4.582;2022-10-30T11:09:38;22.42;;;9.18;;
36257;SDS011;22294;52.044;4.582;2022-10-30T11:11:46;19.02;;;9.23;;
36257;SDS011;22294;52.044;4.582;2022-10-30T11:14:14;18.63;;;8.93;;
36257;SDS011;22294;52.044;4.582;2022-10-30T11:19:15;17.77;;;9.40;;
36257;SDS011;22294;52.044;4.582;2022-10-30T11:21:50;16.08;;;9.23;;
36257;SDS011;22294;52.044;4.582;2022-10-30T11:26:55;19.00;;;10.50;;
36257;SDS011;22294;52.044;4.582;2022-10-30T11:29:22;17.02;;;9.60;;
36257;SDS011;22294;52.044;4.582;2022-10-30T11:32:01;18.25;;;9.82;;
36257;SDS011;22294;52.044;4.582;2022-10-30T11:34:33;23.52;;;10.80;;
36257;SDS011;22294;52.044;4.582;2022-10-30T11:36:59;18.73;;;9.52;;
36257;SDS011;22294;52.044;4.582;2022-10-30T11:39:26;20.65;;;10.40;;
36257;SDS011;22294;52.044;4.582;2022-10-30T11:42:00;17.85;;;9.70;;
36257;SDS011;22294;52.044;4.582;2022-10-30T11:46:56;21.83;;;9.93;;
36257;SDS011;22294;52.044;4.582;2022-10-30T11:49:23;17.08;;;9.23;;
36257;SDS011;22294;52.044;4.582;2022-10-30T11:51:53;16.75;;;10.13;;
36257;SDS011;22294;52.044;4.582;2022-10-30T11:54:20;18.67;;;9.80;;
36257;SDS011;22294;52.044;4.582;2022-10-30T11:56:47;20.67;;;9.98;;
36257;SDS011;22294;52.044;4.582;2022-10-30T11:59:16;21.27;;;10.23;;
36257;SDS011;22294;52.044;4.582;2022-10-30T12:01:57;20.52;;;10.23;;
36257;SDS011;22294;52.044;4.582;2022-10-30T12:04:23;22.00;;;12.20;;
36257;SDS011;22294;52.044;4.582;2022-10-30T12:07:33;19.80;;;10.98;;
36257;SDS011;22294;52.044;4.582;2022-10-30T12:09:45;27.23;;;12.05;;
36257;SDS011;22294;52.044;4.582;2022-10-30T12:12:14;18.25;;;10.88;;
36257;SDS011;22294;52.044;4.582;2022-10-30T12:14:43;22.35;;;11.70;;
36257;SDS011;22294;52.044;4.582;2022-10-30T12:17:08;21.35;;;10.55;;
36257;SDS011;22294;52.044;4.582;2022-10-30T12:22:09;23.23;;;10.63;;
36257;SDS011;22294;52.044;4.582;2022-10-30T12:24:35;18.33;;;10.20;;
36257;SDS011;22294;52.044;4.582;2022-10-30T12:27:02;21.20;;;10.45;;
36257;SDS011;22294;52.044;4.582;2022-10-30T12:29:37;19.08;;;10.80;;
36257;SDS011;22294;52.044;4.582;2022-10-30T12:32:08;17.15;;;10.20;;
36257;SDS011;22294;52.044;4.582;2022-10-30T12:37:31;19.83;;;10.02;;
36257;SDS011;22294;52.044;4.582;2022-10-30T12:42:52;17.40;;;10.07;;
36257;SDS011;22294;52.044;4.582;2022-10-30T12:45:39;17.95;;;9.68;;
36257;SDS011;22294;52.044;4.582;2022-10-30T12:48:13;20.38;;;9.35;;
36257;SDS011;22294;52.044;4.582;2022-10-30T12:54:11;18.73;;;9.27;;
36257;SDS011;22294;52.044;4.582;2022-10-30T12:57:11;20.23;;;8.65;;
36257;SDS011;22294;52.044;4.582;2022-10-30T12:59:42;21.13;;;7.95;;
36257;SDS011;22294;52.044;4.582;2022-10-30T13:05:04;14.65;;;7.50;;
36257;SDS011;22294;52.044;4.582;2022-10-30T13:07:38;16.40;;;8.50;;
36257;SDS011;22294;52.044;4.582;2022-10-30T13:12:56;15.95;;;8.00;;
36257;SDS011;22294;52.044;4.582;2022-10-30T13:15:39;11.65;;;7.65;;
36257;SDS011;22294;52.044;4.582;2022-10-30T13:18:13;18.23;;;8.57;;
36257;SDS011;22294;52.044;4.582;2022-10-30T13:20:41;13.10;;;7.40;;
36257;SDS011;22294;52.044;4.582;2022-10-30T13:23:10;14.82;;;7.22;;
36257;SDS011;22294;52.044;4.582;2022-10-30T13:25:55;16.92;;;8.23;;
36257;SDS011;22294;52.044;4.582;2022-10-30T13:28:29;15.75;;;7.20;;
36257;SDS011;22294;52.044;4.582;2022-10-30T13:44:36;14.23;;;6.68;;
36257;SDS011;22294;52.044;4.582;2022-10-30T13:47:31;14.38;;;5.80;;
36257;SDS011;22294;52.044;4.582;2022-10-30T13:52:45;14.23;;;5.15;;
36257;SDS011;22294;52.044;4.582;2022-10-30T13:55:28;7.75;;;4.35;;
36257;SDS011;22294;52.044;4.582;2022-10-30T14:09:23;13.60;;;6.15;;
36257;SDS011;22294;52.044;4.582;2022-10-30T14:11:52;18.67;;;5.95;;
36257;SDS011;22294;52.044;4.582;2022-10-30T14:16:48;15.48;;;6.38;;
36257;SDS011;22294;52.044;4.582;2022-10-30T14:22:31;18.52;;;7.00;;
36257;SDS011;22294;52.044;4.582;2022-10-30T14:24:57;13.13;;;6.28;;
36257;SDS011;22294;52.044;4.582;2022-10-30T14:27:26;15.65;;;6.65;;
36257;SDS011;22294;52.044;4.582;2022-10-30T14:29:54;18.33;;;6.05;;
36257;SDS011;22294;52.044;4.582;2022-10-30T14:39:51;7.70;;;4.10;;
36257;SDS011;22294;52.044;4.582;2022-10-30T14:42:38;7.13;;;3.38;;
36257;SDS011;22294;52.044;4.582;2022-10-30T14:45:21;9.90;;;3.83;;
36257;SDS011;22294;52.044;4.582;2022-10-30T14:47:59;12.63;;;4.72;;
36257;SDS011;22294;52.044;4.582;2022-10-30T14:50:58;10.85;;;5.55;;
36257;SDS011;22294;52.044;4.582;2022-10-30T14:53:53;13.80;;;8.45;;
36257;SDS011;22294;52.044;4.582;2022-10-30T15:07:26;19.07;;;10.33;;
36257;SDS011;22294;52.044;4.582;2022-10-30T15:09:57;17.15;;;11.52;;
36257;SDS011;22294;52.044;4.582;2022-10-30T15:15:02;28.75;;;22.75;;
36257;SDS011;22294;52.044;4.582;2022-10-30T15:17:37;32.53;;;27.35;;
36257;SDS011;22294;52.044;4.582;2022-10-30T15:20:13;11.60;;;5.00;;
36257;SDS011;22294;52.044;4.582;2022-10-30T15:22:50;9.00;;;4.95;;
36257;SDS011;22294;52.044;4.582;2022-10-30T15:25:19;14.15;;;4.57;;
36257;SDS011;22294;52.044;4.582;2022-10-30T15:27:51;16.20;;;4.90;;
36257;SDS011;22294;52.044;4.582;2022-10-30T15:30:19;17.00;;;4.75;;
36257;SDS011;22294;52.044;4.582;2022-10-30T15:32:47;12.43;;;4.10;;
36257;SDS011;22294;52.044;4.582;2022-10-30T15:35:17;12.15;;;4.22;;
36257;SDS011;22294;52.044;4.582;2022-10-30T15:37:56;12.07;;;3.75;;
36257;SDS011;22294;52.044;4.582;2022-10-30T15:40:22;10.55;;;3.70;;
36257;SDS011;22294;52.044;4.582;2022-10-30T15:42:48;9.68;;;3.70;;
36257;SDS011;22294;52.044;4.582;2022-10-30T15:45:16;12.43;;;4.13;;
36257;SDS011;22294;52.044;4.582;2022-10-30T15:47:44;11.55;;;3.70;;
36257;SDS011;22294;52.044;4.582;2022-10-30T15:50:12;11.93;;;3.85;;
36257;SDS011;22294;52.044;4.582;2022-10-30T15:52:39;10.48;;;4.30;;
36257;SDS011;22294;52.044;4.582;2022-10-30T15:55:07;9.45;;;3.45;;
36257;SDS011;22294;52.044;4.582;2022-10-30T15:57:42;9.60;;;3.60;;
36257;SDS011;22294;52.044;4.582;2022-10-30T16:00:18;8.90;;;3.20;;
36257;SDS011;22294;52.044;4.582;2022-10-30T16:03:02;12.93;;;3.58;;
36257;SDS011;22294;52.044;4.582;2022-10-30T16:05:36;10.93;;;3.33;;
36257;SDS011;22294;52.044;4.582;2022-10-30T16:08:02;19.25;;;4.05;;
36257;SDS011;22294;52.044;4.582;2022-10-30T16:10:34;8.57;;;3.72;;
36257;SDS011;22294;52.044;4.582;2022-10-30T16:13:00;9.32;;;3.72;;
36257;SDS011;22294;52.044;4.582;2022-10-30T16:18:16;13.60;;;4.30;;
36257;SDS011;22294;52.044;4.582;2022-10-30T16:20:49;14.70;;;3.83;;
36257;SDS011;22294;52.044;4.582;2022-10-30T16:23:16;9.27;;;3.38;;
36257;SDS011;22294;52.044;4.582;2022-10-30T16:25:44;10.93;;;4.18;;
36257;SDS011;22294;52.044;4.582;2022-10-30T16:28:27;8.27;;;3.88;;
36257;SDS011;22294;52.044;4.582;2022-10-30T16:30:59;11.48;;;3.83;;
36257;SDS011;22294;52.044;4.582;2022-10-30T16:33:26;9.10;;;4.05;;
36257;SDS011;22294;52.044;4.582;2022-10-30T16:35:53;12.95;;;4.00;;
36257;SDS011;22294;52.044;4.582;2022-10-30T16:38:19;9.90;;;4.50;;
36257;SDS011;22294;52.044;4.582;2022-10-30T16:40:46;11.35;;;4.03;;
36257;SDS011;22294;52.044;4.582;2022-10-30T16:43:28;13.70;;;4.90;;
36257;SDS011;22294;52.044;4.582;2022-10-30T16:45:55;10.73;;;4.68;;
36257;SDS011;22294;52.044;4.582;2022-10-30T16:48:53;11.40;;;5.20;;
36257;SDS011;22294;52.044;4.582;2022-10-30T16:51:22;15.25;;;5.03;;
36257;SDS011;22294;52.044;4.582;2022-10-30T16:53:50;15.65;;;5.38;;
36257;SDS011;22294;52.044;4.582;2022-10-30T16:56:26;9.02;;;4.65;;
36257;SDS011;22294;52.044;4.582;2022-10-30T16:59:07;10.07;;;4.63;;
36257;SDS011;22294;52.044;4.582;2022-10-30T17:02:00;9.50;;;4.20;;
36257;SDS011;22294;52.044;4.582;2022-10-30T17:04:31;13.50;;;4.82;;
36257;SDS011;22294;52.044;4.582;2022-10-30T17:07:05;11.15;;;5.32;;
36257;SDS011;22294;52.044;4.582;2022-10-30T17:09:39;12.27;;;4.90;;
36257;SDS011;22294;52.044;4.582;2022-10-30T17:14:43;14.50;;;5.43;;
36257;SDS011;22294;52.044;4.582;2022-10-30T17:19:56;8.45;;;5.60;;
36257;SDS011;22294;52.044;4.582;2022-10-30T17:22:23;13.20;;;5.78;;
36257;SDS011;22294;52.044;4.582;2022-10-30T17:24:50;16.98;;;7.78;;